createdAt,value
2023-04-09T00:02:37.717Z,5.62
2023-04-09T00:07:39.568Z,5.55
2023-04-09T00:12:41.285Z,5.58
2023-04-09T00:17:43.057Z,5.73
2023-04-09T00:22:44.667Z,5.67
2023-04-09T00:27:46.251Z,5.80
2023-04-09T00:32:47.899Z,5.65
2023-04-09T00:37:49.780Z,5.55
2023-04-09T00:42:51.417Z,5.53
2023-04-09T00:47:53.679Z,5.80
2023-04-09T00:52:56.132Z,5.49
2023-04-09T00:57:57.719Z,5.68
2023-04-09T01:03:00.876Z,5.70
2023-04-09T01:08:08.738Z,5.53
2023-04-09T01:13:20.425Z,5.56
2023-04-09T01:18:43.043Z,5.64
2023-04-09T01:23:52.478Z,5.26
2023-04-09T01:28:56.093Z,5.46
2023-04-09T01:34:00.778Z,5.45
2023-04-09T01:39:03.235Z,5.24
2023-04-09T01:44:07.724Z,5.33
2023-04-09T01:49:12.461Z,5.46
2023-04-09T01:54:14.584Z,5.35
2023-04-09T01:59:16.274Z,5.36
2023-04-09T02:04:44.057Z,5.39
2023-04-09T02:09:47.841Z,5.57
2023-04-09T02:14:52.410Z,5.33
2023-04-09T02:19:54.078Z,5.38
2023-04-09T02:24:55.793Z,5.45
2023-04-09T02:29:57.424Z,5.41
2023-04-09T02:34:59.018Z,5.15
2023-04-09T02:40:00.613Z,5.34
2023-04-09T02:45:02.179Z,5.34
2023-04-09T02:50:04.577Z,5.31
2023-04-09T02:55:06.758Z,5.35
2023-04-09T03:00:09.086Z,5.39
2023-04-09T03:05:10.742Z,5.53
2023-04-09T03:10:12.310Z,5.33
2023-04-09T03:15:13.920Z,5.52
2023-04-09T03:20:15.576Z,5.50
2023-04-09T03:25:19.580Z,5.41
2023-04-09T03:30:21.384Z,5.45
2023-04-09T03:35:23.005Z,5.39
2023-04-09T03:40:24.719Z,5.38
2023-04-09T03:45:27.066Z,5.45
2023-04-09T03:50:28.644Z,5.14
2023-04-09T03:55:30.558Z,5.29
2023-04-09T04:00:32.176Z,5.37
2023-04-09T04:05:33.793Z,5.33
2023-04-09T04:10:35.356Z,5.39
2023-04-09T04:15:43.310Z,5.35
2023-04-09T04:20:44.970Z,5.28
2023-04-09T04:25:46.657Z,5.38
2023-04-09T04:30:48.483Z,5.34
2023-04-09T04:35:50.124Z,5.14
2023-04-09T04:40:51.676Z,5.25
2023-04-09T04:45:53.700Z,5.32
2023-04-09T04:51:00.346Z,5.31
2023-04-09T04:56:01.942Z,5.26
2023-04-09T05:01:03.653Z,5.36
2023-04-09T05:06:05.327Z,5.34
2023-04-09T05:11:06.917Z,5.27
2023-04-09T05:16:08.524Z,5.38
2023-04-09T05:21:10.108Z,5.25
2023-04-09T05:26:11.665Z,5.43
2023-04-09T05:31:13.735Z,5.39
2023-04-09T05:36:17.296Z,5.26
2023-04-09T05:41:18.912Z,5.36
2023-04-09T05:46:20.526Z,5.38
2023-04-09T05:51:22.112Z,5.39
2023-04-09T05:56:23.755Z,5.35
2023-04-09T06:01:25.350Z,5.56
2023-04-09T06:06:27.182Z,5.10
2023-04-09T06:11:28.774Z,5.45
2023-04-09T06:16:30.631Z,5.24
2023-04-09T06:21:33.303Z,5.43
2023-04-09T06:26:34.893Z,5.55
2023-04-09T06:31:36.601Z,5.60
2023-04-09T06:36:40.451Z,5.72
2023-04-09T06:41:42.113Z,5.47
2023-04-09T06:46:43.727Z,5.73
2023-04-09T06:51:45.384Z,5.71
2023-04-09T06:56:46.988Z,5.49
2023-04-09T07:01:48.893Z,5.42
2023-04-09T07:06:51.688Z,5.77
2023-04-09T07:11:53.281Z,5.64
2023-04-09T07:16:54.830Z,5.34
2023-04-09T07:21:56.892Z,5.75
2023-04-09T07:26:58.441Z,5.84
2023-04-09T07:32:01.462Z,5.59
2023-04-09T07:37:03.530Z,5.67
2023-04-09T07:42:06.030Z,5.73
2023-04-09T07:47:08.835Z,5.87
2023-04-09T07:52:10.853Z,5.96
2023-04-09T07:57:12.452Z,5.97
2023-04-09T08:02:15.452Z,6.00
2023-04-09T08:07:17.173Z,5.95
2023-04-09T08:12:18.748Z,5.87
2023-04-09T08:17:20.362Z,5.94
2023-04-09T08:22:22.061Z,6.00
2023-04-09T08:27:23.692Z,5.92
2023-04-09T08:32:25.413Z,6.00
2023-04-09T08:37:27.493Z,6.05
2023-04-09T08:42:31.335Z,5.93
2023-04-09T08:47:34.310Z,5.92
2023-04-09T08:52:37.354Z,6.07
2023-04-09T08:57:39.816Z,6.02
2023-04-09T09:03:08.435Z,6.05
2023-04-09T09:08:12.662Z,5.98
2023-04-09T09:13:24.954Z,5.95
2023-04-09T09:18:41.641Z,5.79
2023-04-09T09:23:43.831Z,5.87
2023-04-09T09:28:47.058Z,5.86
2023-04-09T09:33:50.585Z,5.83
2023-04-09T09:38:57.337Z,5.70
2023-04-09T09:43:59.007Z,5.78
2023-04-09T09:49:00.603Z,5.97
2023-04-09T09:54:02.643Z,5.83
2023-04-09T09:59:23.943Z,5.97
2023-04-09T10:04:28.825Z,5.89
2023-04-09T10:09:31.380Z,5.90
2023-04-09T10:14:36.034Z,6.00
2023-04-09T10:19:49.369Z,5.88
2023-04-09T10:24:52.743Z,5.93
2023-04-09T10:29:54.398Z,5.89
2023-04-09T10:35:01.780Z,6.19
2023-04-09T10:40:04.026Z,6.39
2023-04-09T10:45:15.258Z,6.35
2023-04-09T10:50:27.916Z,6.26
2023-04-09T10:55:48.325Z,6.43
2023-04-09T11:00:52.378Z,6.40
2023-04-09T11:06:06.044Z,6.42
2023-04-09T11:11:07.686Z,6.69
2023-04-09T11:16:09.292Z,6.93
2023-04-09T11:21:13.509Z,7.21
2023-04-09T11:26:15.084Z,6.78
2023-04-09T11:31:16.749Z,6.75
2023-04-09T11:36:18.996Z,6.74
2023-04-09T11:41:36.216Z,6.55
2023-04-09T11:46:39.078Z,6.82
2023-04-09T11:51:41.020Z,6.49
2023-04-09T11:56:42.987Z,6.36
2023-04-09T12:01:49.824Z,6.58
2023-04-09T12:06:51.980Z,6.63
2023-04-09T12:11:53.673Z,6.94
2023-04-09T12:16:55.386Z,7.28
2023-04-09T12:21:58.505Z,7.11
2023-04-09T12:27:01.694Z,7.31
2023-04-09T12:32:03.667Z,7.36
2023-04-09T12:37:05.548Z,7.58
2023-04-09T12:42:07.147Z,7.50
2023-04-09T12:47:08.822Z,7.79
2023-04-09T12:52:10.445Z,8.19
2023-04-09T12:57:12.018Z,8.12
2023-04-09T13:02:13.768Z,8.14
2023-04-09T13:07:17.575Z,8.22
2023-04-09T13:12:21.598Z,8.17
2023-04-09T13:17:23.424Z,7.68
2023-04-09T13:22:25.069Z,7.41
2023-04-09T13:27:26.639Z,7.31
2023-04-09T13:32:28.274Z,7.23
2023-04-09T13:37:29.891Z,7.14
2023-04-09T13:42:31.721Z,7.27
2023-04-09T13:47:33.382Z,7.26
2023-04-09T13:52:35.078Z,7.73
2023-04-09T13:57:36.776Z,7.54
2023-04-09T14:02:38.430Z,7.93
2023-04-09T14:07:40.058Z,7.19
2023-04-09T14:12:41.953Z,6.46
2023-04-09T14:17:44.158Z,6.44
2023-04-09T14:22:49.190Z,6.48
2023-04-09T14:27:50.919Z,6.42
2023-04-09T14:32:52.581Z,6.44
2023-04-09T14:37:54.251Z,6.49
2023-04-09T14:42:55.849Z,6.59
2023-04-09T14:47:57.591Z,6.59
2023-04-09T14:52:59.642Z,6.43
2023-04-09T14:58:04.346Z,6.68
2023-04-09T15:03:06.570Z,6.50
2023-04-09T15:08:08.310Z,6.39
2023-04-09T15:13:09.971Z,6.57
2023-04-09T15:18:11.527Z,6.43
2023-04-09T15:23:13.201Z,6.48
2023-04-09T15:28:14.765Z,6.61
2023-04-09T15:33:16.384Z,6.69
2023-04-09T15:38:18.012Z,6.76
2023-04-09T15:43:19.629Z,6.90
2023-04-09T15:48:21.217Z,6.58
2023-04-09T15:53:26.687Z,6.71
2023-04-09T15:58:28.863Z,6.93
2023-04-09T16:03:35.357Z,6.70
2023-04-09T16:08:37.552Z,6.79
2023-04-09T16:13:39.170Z,6.52
2023-04-09T16:18:40.826Z,6.62
2023-04-09T16:23:42.487Z,6.38
2023-04-09T16:28:44.099Z,6.24
2023-04-09T16:33:45.909Z,6.52
2023-04-09T16:38:48.265Z,6.45
2023-04-09T16:43:51.223Z,6.24
2023-04-09T16:48:53.093Z,6.24
2023-04-09T16:53:54.919Z,6.34
2023-04-09T16:58:56.550Z,6.35
2023-04-09T17:03:59.635Z,6.48
2023-04-09T17:09:03.684Z,6.49
2023-04-09T17:14:05.871Z,6.48
2023-04-09T17:19:09.107Z,6.35
2023-04-09T17:24:10.781Z,6.46
2023-04-09T17:29:12.456Z,6.48
2023-04-09T17:34:16.304Z,6.36
2023-04-09T17:39:17.915Z,6.26
2023-04-09T17:44:19.503Z,6.30
2023-04-09T17:49:22.465Z,6.13
2023-04-09T17:54:24.247Z,6.03
2023-04-09T17:59:25.976Z,6.18
2023-04-09T18:04:27.914Z,6.12
2023-04-09T18:09:29.686Z,6.09
2023-04-09T18:14:32.523Z,6.17
2023-04-09T18:19:34.136Z,6.34
2023-04-09T18:24:35.869Z,6.18
2023-04-09T18:29:37.453Z,6.09
2023-04-09T18:34:39.012Z,6.15
2023-04-09T18:39:40.967Z,6.18
2023-04-09T18:44:42.670Z,6.19
2023-04-09T18:49:44.365Z,6.18
2023-04-09T18:54:46.139Z,6.23
2023-04-09T18:59:48.620Z,5.97
2023-04-09T19:04:50.380Z,6.11
2023-04-09T19:09:52.269Z,5.94
2023-04-09T19:14:54.387Z,5.99
2023-04-09T19:19:56.214Z,5.94
2023-04-09T19:24:57.886Z,5.78
2023-04-09T19:30:01.258Z,5.97
2023-04-09T19:35:03.542Z,6.03
2023-04-09T19:40:11.110Z,6.08
2023-04-09T19:45:12.888Z,5.92
2023-04-09T19:50:14.654Z,5.95
2023-04-09T19:55:16.260Z,6.05
2023-04-09T20:00:17.875Z,5.98
2023-04-09T20:05:21.124Z,6.05
2023-04-09T20:10:22.920Z,5.97
2023-04-09T20:15:24.592Z,6.02
2023-04-09T20:20:26.294Z,5.96
2023-04-09T20:25:33.941Z,5.90
2023-04-09T20:30:35.806Z,5.73
2023-04-09T20:35:37.476Z,5.84
2023-04-09T20:40:39.121Z,5.93
2023-04-09T20:45:40.816Z,5.98
2023-04-09T20:50:42.769Z,5.85
2023-04-09T20:55:44.720Z,5.79
2023-04-09T21:00:46.378Z,5.75
2023-04-09T21:05:47.994Z,5.55
2023-04-09T21:10:49.626Z,5.83
2023-04-09T21:15:51.322Z,5.89
2023-04-09T21:20:53.521Z,5.67
2023-04-09T21:25:55.194Z,5.83
2023-04-09T21:30:57.704Z,5.67
2023-04-09T21:35:59.438Z,5.69
2023-04-09T21:41:01.887Z,5.79
2023-04-09T21:46:03.701Z,5.85
2023-04-09T21:51:09.640Z,5.76
2023-04-09T21:56:11.486Z,5.91
2023-04-09T22:01:26.167Z,5.80
2023-04-09T22:06:30.146Z,5.68
2023-04-09T22:11:34.476Z,6.00
2023-04-09T22:16:36.257Z,5.74
2023-04-09T22:21:37.870Z,5.85
2023-04-09T22:26:40.973Z,5.76
2023-04-09T22:31:42.657Z,5.80
2023-04-09T22:36:44.326Z,5.75
2023-04-09T22:41:45.892Z,5.68
2023-04-09T22:46:47.506Z,5.67
2023-04-09T22:51:49.211Z,5.47
2023-04-09T22:56:50.870Z,5.63
2023-04-09T23:01:52.515Z,5.71
2023-04-09T23:06:54.671Z,5.62
2023-04-09T23:11:57.173Z,5.68
2023-04-09T23:16:58.800Z,5.80
2023-04-09T23:22:00.494Z,5.71
2023-04-09T23:27:02.533Z,5.80
2023-04-09T23:32:04.152Z,5.52
2023-04-09T23:37:05.775Z,5.79
2023-04-09T23:42:07.326Z,5.77
2023-04-09T23:47:09.043Z,5.78
2023-04-09T23:52:10.820Z,5.76
2023-04-09T23:57:12.502Z,5.79
